sensor_id;sensor_type;location;lat;lon;timestamp;temperature;humidity
26041;DHT22;13816;53.628;9.950;2023-04-30T00:01:29;7.00;99.90
26041;DHT22;13816;53.628;9.950;2023-04-30T00:03:56;6.00;99.90
26041;DHT22;13816;53.628;9.950;2023-04-30T00:06:23;6.00;99.90
26041;DHT22;13816;53.628;9.950;2023-04-30T00:08:53;5.90;99.90
26041;DHT22;13816;53.628;9.950;2023-04-30T00:38:21;5.90;99.90
26041;DHT22;13816;53.628;9.950;2023-04-30T00:40:48;5.70;99.90
26041;DHT22;13816;53.628;9.950;2023-04-30T01:20:25;5.60;99.90
26041;DHT22;13816;53.628;9.950;2023-04-30T01:41:34;5.30;99.90
26041;DHT22;13816;53.628;9.950;2023-04-30T02:39:05;5.10;99.90
26041;DHT22;13816;53.628;9.950;2023-04-30T02:41:32;4.50;99.90
26041;DHT22;13816;53.628;9.950;2023-04-30T02:43:59;4.50;99.90
26041;DHT22;13816;53.628;9.950;2023-04-30T02:46:27;4.40;99.90
26041;DHT22;13816;53.628;9.950;2023-04-30T02:48:55;4.40;99.90
26041;DHT22;13816;53.628;9.950;2023-04-30T02:51:22;4.40;99.90
26041;DHT22;13816;53.628;9.950;2023-04-30T02:53:49;4.40;99.90
26041;DHT22;13816;53.628;9.950;2023-04-30T02:56:16;4.40;99.90
26041;DHT22;13816;53.628;9.950;2023-04-30T02:58:43;4.30;99.90
26041;DHT22;13816;53.628;9.950;2023-04-30T03:01:10;4.30;99.90
26041;DHT22;13816;53.628;9.950;2023-04-30T03:03:37;4.30;99.90
26041;DHT22;13816;53.628;9.950;2023-04-30T03:06:04;4.30;99.90
26041;DHT22;13816;53.628;9.950;2023-04-30T03:08:31;4.30;99.90
26041;DHT22;13816;53.628;9.950;2023-04-30T03:10:58;4.30;99.90
26041;DHT22;13816;53.628;9.950;2023-04-30T03:13:25;4.30;99.90
26041;DHT22;13816;53.628;9.950;2023-04-30T03:15:57;4.30;99.90
26041;DHT22;13816;53.628;9.950;2023-04-30T03:18:28;4.20;99.90
26041;DHT22;13816;53.628;9.950;2023-04-30T03:20:55;4.20;99.90
26041;DHT22;13816;53.628;9.950;2023-04-30T03:23:22;4.20;99.90
26041;DHT22;13816;53.628;9.950;2023-04-30T06:13:31;4.20;99.90
26041;DHT22;13816;53.628;9.950;2023-04-30T06:15:59;6.10;99.90
26041;DHT22;13816;53.628;9.950;2023-04-30T06:18:27;6.20;99.90
26041;DHT22;13816;53.628;9.950;2023-04-30T06:20:55;6.30;99.90
26041;DHT22;13816;53.628;9.950;2023-04-30T06:23:22;6.40;99.90
26041;DHT22;13816;53.628;9.950;2023-04-30T06:25:49;6.50;99.90
26041;DHT22;13816;53.628;9.950;2023-04-30T06:28:16;6.50;99.90
26041;DHT22;13816;53.628;9.950;2023-04-30T06:30:43;6.60;99.90
26041;DHT22;13816;53.628;9.950;2023-04-30T06:33:10;6.80;99.90
26041;DHT22;13816;53.628;9.950;2023-04-30T06:35:39;6.80;99.90
26041;DHT22;13816;53.628;9.950;2023-04-30T06:38:06;7.00;99.90
26041;DHT22;13816;53.628;9.950;2023-04-30T06:40:33;7.10;99.90
26041;DHT22;13816;53.628;9.950;2023-04-30T06:43:01;7.30;99.90
26041;DHT22;13816;53.628;9.950;2023-04-30T06:45:31;7.40;99.90
26041;DHT22;13816;53.628;9.950;2023-04-30T06:47:58;7.50;99.90
26041;DHT22;13816;53.628;9.950;2023-04-30T06:50:25;7.70;99.90
26041;DHT22;13816;53.628;9.950;2023-04-30T06:52:56;7.90;99.90
26041;DHT22;13816;53.628;9.950;2023-04-30T07:00:18;8.00;99.90
26041;DHT22;13816;53.628;9.950;2023-04-30T07:12:40;8.70;99.90
26041;DHT22;13816;53.628;9.950;2023-04-30T08:20:36;9.20;99.90
26041;DHT22;13816;53.628;9.950;2023-04-30T08:23:14;12.20;99.90
26041;DHT22;13816;53.628;9.950;2023-04-30T08:26:38;12.00;99.60
26041;DHT22;13816;53.628;9.950;2023-04-30T08:29:31;12.00;99.80
26041;DHT22;13816;53.628;9.950;2023-04-30T08:33:01;12.00;99.10
26041;DHT22;13816;53.628;9.950;2023-04-30T08:36:31;11.80;99.90
26041;DHT22;13816;53.628;9.950;2023-04-30T08:47:16;12.10;99.90
26041;DHT22;13816;53.628;9.950;2023-04-30T08:49:44;13.20;98.50
26041;DHT22;13816;53.628;9.950;2023-04-30T14:54:35;13.40;98.10
26041;DHT22;13816;53.628;9.950;2023-04-30T14:57:02;17.00;84.90
26041;DHT22;13816;53.628;9.950;2023-04-30T14:59:29;16.80;87.90
26041;DHT22;13816;53.628;9.950;2023-04-30T15:01:57;16.70;88.00
26041;DHT22;13816;53.628;9.950;2023-04-30T15:04:25;16.70;86.70
26041;DHT22;13816;53.628;9.950;2023-04-30T15:06:52;16.60;87.10
26041;DHT22;13816;53.628;9.950;2023-04-30T15:09:19;16.70;88.10
26041;DHT22;13816;53.628;9.950;2023-04-30T15:11:46;16.80;88.70
26041;DHT22;13816;53.628;9.950;2023-04-30T15:14:14;16.90;88.30
26041;DHT22;13816;53.628;9.950;2023-04-30T15:16:43;17.00;88.30
26041;DHT22;13816;53.628;9.950;2023-04-30T15:19:10;17.00;87.60
26041;DHT22;13816;53.628;9.950;2023-04-30T15:21:36;17.00;86.80
26041;DHT22;13816;53.628;9.950;2023-04-30T15:24:04;16.90;85.10
26041;DHT22;13816;53.628;9.950;2023-04-30T15:26:31;16.80;86.00
26041;DHT22;13816;53.628;9.950;2023-04-30T15:28:58;16.70;87.00
26041;DHT22;13816;53.628;9.950;2023-04-30T15:31:26;16.80;86.10
26041;DHT22;13816;53.628;9.950;2023-04-30T15:33:53;16.70;87.10
26041;DHT22;13816;53.628;9.950;2023-04-30T15:36:20;16.70;87.10
26041;DHT22;13816;53.628;9.950;2023-04-30T15:38:49;16.70;86.00
26041;DHT22;13816;53.628;9.950;2023-04-30T15:41:16;16.80;86.80
26041;DHT22;13816;53.628;9.950;2023-04-30T15:43:43;16.90;88.10
26041;DHT22;13816;53.628;9.950;2023-04-30T15:46:10;16.90;86.30
26041;DHT22;13816;53.628;9.950;2023-04-30T15:48:37;16.90;87.00
26041;DHT22;13816;53.628;9.950;2023-04-30T15:51:04;16.90;86.40
26041;DHT22;13816;53.628;9.950;2023-04-30T15:53:31;16.90;87.00
26041;DHT22;13816;53.628;9.950;2023-04-30T15:55:58;16.90;85.10
26041;DHT22;13816;53.628;9.950;2023-04-30T15:58:25;16.80;86.00
26041;DHT22;13816;53.628;9.950;2023-04-30T16:00:54;16.70;85.70
26041;DHT22;13816;53.628;9.950;2023-04-30T16:03:21;16.80;86.70
26041;DHT22;13816;53.628;9.950;2023-04-30T16:05:48;16.90;86.40
26041;DHT22;13816;53.628;9.950;2023-04-30T16:08:15;16.90;86.20
26041;DHT22;13816;53.628;9.950;2023-04-30T16:10:43;16.90;86.90
26041;DHT22;13816;53.628;9.950;2023-04-30T16:13:10;16.90;86.50
26041;DHT22;13816;53.628;9.950;2023-04-30T16:15:37;16.90;86.30
26041;DHT22;13816;53.628;9.950;2023-04-30T16:18:04;16.90;85.80
26041;DHT22;13816;53.628;9.950;2023-04-30T16:20:31;16.80;86.70
26041;DHT22;13816;53.628;9.950;2023-04-30T16:22:58;16.80;88.20
26041;DHT22;13816;53.628;9.950;2023-04-30T16:25:25;16.80;88.20
26041;DHT22;13816;53.628;9.950;2023-04-30T16:27:55;16.80;84.80
26041;DHT22;13816;53.628;9.950;2023-04-30T16:30:22;16.70;85.00
26041;DHT22;13816;53.628;9.950;2023-04-30T16:32:50;16.30;86.70
26041;DHT22;13816;53.628;9.950;2023-04-30T16:35:17;16.50;86.10
26041;DHT22;13816;53.628;9.950;2023-04-30T16:37:44;16.50;85.80
26041;DHT22;13816;53.628;9.950;2023-04-30T16:40:11;16.40;86.10
26041;DHT22;13816;53.628;9.950;2023-04-30T16:42:38;16.40;87.30
26041;DHT22;13816;53.628;9.950;2023-04-30T16:45:05;16.40;88.50
26041;DHT22;13816;53.628;9.950;2023-04-30T16:47:33;16.30;87.70
26041;DHT22;13816;53.628;9.950;2023-04-30T16:50:00;16.30;88.60
26041;DHT22;13816;53.628;9.950;2023-04-30T16:52:28;16.30;87.40
26041;DHT22;13816;53.628;9.950;2023-04-30T16:54:55;16.30;88.20
26041;DHT22;13816;53.628;9.950;2023-04-30T16:57:22;16.30;89.00
26041;DHT22;13816;53.628;9.950;2023-04-30T16:59:51;16.20;88.50
26041;DHT22;13816;53.628;9.950;2023-04-30T17:02:18;16.20;88.70
26041;DHT22;13816;53.628;9.950;2023-04-30T17:04:45;16.20;88.30
26041;DHT22;13816;53.628;9.950;2023-04-30T17:07:12;16.20;89.10
26041;DHT22;13816;53.628;9.950;2023-04-30T17:09:39;16.10;87.90
26041;DHT22;13816;53.628;9.950;2023-04-30T17:12:07;16.00;88.90
26041;DHT22;13816;53.628;9.950;2023-04-30T17:14:34;15.90;89.00
26041;DHT22;13816;53.628;9.950;2023-04-30T17:17:01;15.70;89.20
26041;DHT22;13816;53.628;9.950;2023-04-30T17:19:28;15.60;89.20
26041;DHT22;13816;53.628;9.950;2023-04-30T17:21:55;15.50;88.60
26041;DHT22;13816;53.628;9.950;2023-04-30T17:24:22;15.40;89.30
26041;DHT22;13816;53.628;9.950;2023-04-30T17:26:51;15.20;89.50
26041;DHT22;13816;53.628;9.950;2023-04-30T17:29:18;15.10;90.40
26041;DHT22;13816;53.628;9.950;2023-04-30T17:31:49;15.00;90.50
26041;DHT22;13816;53.628;9.950;2023-04-30T17:34:16;14.90;90.90
26041;DHT22;13816;53.628;9.950;2023-04-30T17:36:43;14.90;91.10
26041;DHT22;13816;53.628;9.950;2023-04-30T17:39:10;14.80;90.90
26041;DHT22;13816;53.628;9.950;2023-04-30T17:41:38;14.80;91.20
26041;DHT22;13816;53.628;9.950;2023-04-30T17:44:05;14.80;91.20
26041;DHT22;13816;53.628;9.950;2023-04-30T17:46:32;14.70;91.20
26041;DHT22;13816;53.628;9.950;2023-04-30T17:48:59;14.60;91.00
26041;DHT22;13816;53.628;9.950;2023-04-30T17:51:27;14.60;91.00
26041;DHT22;13816;53.628;9.950;2023-04-30T17:54:00;14.50;91.40
26041;DHT22;13816;53.628;9.950;2023-04-30T17:56:27;14.40;91.50
26041;DHT22;13816;53.628;9.950;2023-04-30T17:58:58;14.30;91.80
26041;DHT22;13816;53.628;9.950;2023-04-30T18:01:25;14.10;91.90
26041;DHT22;13816;53.628;9.950;2023-04-30T18:03:52;14.00;92.40
26041;DHT22;13816;53.628;9.950;2023-04-30T18:06:20;14.00;92.50
26041;DHT22;13816;53.628;9.950;2023-04-30T18:08:47;13.90;92.60
26041;DHT22;13816;53.628;9.950;2023-04-30T18:11:14;13.80;93.10
26041;DHT22;13816;53.628;9.950;2023-04-30T18:13:41;13.70;93.30
26041;DHT22;13816;53.628;9.950;2023-04-30T18:16:08;13.70;93.40
26041;DHT22;13816;53.628;9.950;2023-04-30T18:18:36;13.70;93.50
26041;DHT22;13816;53.628;9.950;2023-04-30T18:21:03;13.60;93.70
26041;DHT22;13816;53.628;9.950;2023-04-30T19:00:41;12.30;98.60
26041;DHT22;13816;53.628;9.950;2023-04-30T19:03:09;12.20;99.10
26041;DHT22;13816;53.628;9.950;2023-04-30T19:05:36;12.10;99.50
26041;DHT22;13816;53.628;9.950;2023-04-30T19:08:04;12.10;99.90
26041;DHT22;13816;53.628;9.950;2023-04-30T19:10:33;11.50;99.90
26041;DHT22;13816;53.628;9.950;2023-04-30T19:13:02;11.90;99.90
26041;DHT22;13816;53.628;9.950;2023-04-30T19:15:30;11.80;99.90
26041;DHT22;13816;53.628;9.950;2023-04-30T19:17:57;11.80;99.90
26041;DHT22;13816;53.628;9.950;2023-04-30T19:20:25;11.50;99.90
26041;DHT22;13816;53.628;9.950;2023-04-30T19:22:55;11.40;99.90
26041;DHT22;13816;53.628;9.950;2023-04-30T19:25:22;10.80;99.90
26041;DHT22;13816;53.628;9.950;2023-04-30T19:27:54;10.50;99.90
26041;DHT22;13816;53.628;9.950;2023-04-30T19:30:22;10.80;99.90
26041;DHT22;13816;53.628;9.950;2023-04-30T19:32:50;11.00;99.90
26041;DHT22;13816;53.628;9.950;2023-04-30T19:35:18;10.60;99.90
26041;DHT22;13816;53.628;9.950;2023-04-30T19:37:49;11.20;99.90
26041;DHT22;13816;53.628;9.950;2023-04-30T19:40:19;10.90;99.90
26041;DHT22;13816;53.628;9.950;2023-04-30T19:42:48;10.20;99.90
26041;DHT22;13816;53.628;9.950;2023-04-30T19:45:19;10.70;99.90
26041;DHT22;13816;53.628;9.950;2023-04-30T19:47:50;10.40;99.90
26041;DHT22;13816;53.628;9.950;2023-04-30T19:50:17;10.60;99.90
26041;DHT22;13816;53.628;9.950;2023-04-30T19:52:45;10.50;99.90
26041;DHT22;13816;53.628;9.950;2023-04-30T19:55:12;10.40;99.90
26041;DHT22;13816;53.628;9.950;2023-04-30T19:57:39;10.30;99.90
26041;DHT22;13816;53.628;9.950;2023-04-30T20:00:07;10.30;99.90
26041;DHT22;13816;53.628;9.950;2023-04-30T20:02:35;10.20;99.90
26041;DHT22;13816;53.628;9.950;2023-04-30T20:05:04;10.10;99.90
26041;DHT22;13816;53.628;9.950;2023-04-30T20:07:33;10.10;99.90
26041;DHT22;13816;53.628;9.950;2023-04-30T20:10:00;10.00;99.90
26041;DHT22;13816;53.628;9.950;2023-04-30T20:12:27;10.00;99.90
26041;DHT22;13816;53.628;9.950;2023-04-30T20:14:54;10.00;99.90
26041;DHT22;13816;53.628;9.950;2023-04-30T20:17:21;9.90;99.90
26041;DHT22;13816;53.628;9.950;2023-04-30T20:19:48;9.90;99.90
26041;DHT22;13816;53.628;9.950;2023-04-30T20:22:15;9.90;99.90
26041;DHT22;13816;53.628;9.950;2023-04-30T20:24:42;9.90;99.90
26041;DHT22;13816;53.628;9.950;2023-04-30T20:27:10;9.90;99.90
26041;DHT22;13816;53.628;9.950;2023-04-30T20:29:40;9.80;99.90
26041;DHT22;13816;53.628;9.950;2023-04-30T20:32:07;9.90;99.90
26041;DHT22;13816;53.628;9.950;2023-04-30T20:34:35;9.80;99.90
26041;DHT22;13816;53.628;9.950;2023-04-30T20:37:02;9.70;99.90
26041;DHT22;13816;53.628;9.950;2023-04-30T20:39:31;9.70;99.90
26041;DHT22;13816;53.628;9.950;2023-04-30T20:41:58;9.50;99.90
26041;DHT22;13816;53.628;9.950;2023-04-30T20:44:27;9.50;99.90
26041;DHT22;13816;53.628;9.950;2023-04-30T20:46:56;9.40;99.90
26041;DHT22;13816;53.628;9.950;2023-04-30T20:49:23;9.30;99.90
26041;DHT22;13816;53.628;9.950;2023-04-30T20:51:52;9.30;99.90
26041;DHT22;13816;53.628;9.950;2023-04-30T20:54:20;9.20;99.90
26041;DHT22;13816;53.628;9.950;2023-04-30T20:56:47;9.30;99.90
26041;DHT22;13816;53.628;9.950;2023-04-30T20:59:14;9.20;99.90
26041;DHT22;13816;53.628;9.950;2023-04-30T21:01:41;9.20;99.90
26041;DHT22;13816;53.628;9.950;2023-04-30T21:04:08;9.20;99.90
26041;DHT22;13816;53.628;9.950;2023-04-30T21:06:35;9.10;99.90
26041;DHT22;13816;53.628;9.950;2023-04-30T21:09:03;9.10;99.90
26041;DHT22;13816;53.628;9.950;2023-04-30T21:11:30;9.10;99.90
26041;DHT22;13816;53.628;9.950;2023-04-30T21:14:01;9.20;99.90
26041;DHT22;13816;53.628;9.950;2023-04-30T21:16:29;9.10;99.90
26041;DHT22;13816;53.628;9.950;2023-04-30T21:18:57;9.10;99.90
26041;DHT22;13816;53.628;9.950;2023-04-30T21:26:21;8.90;99.90
26041;DHT22;13816;53.628;9.950;2023-04-30T21:30:46;8.80;99.90
26041;DHT22;13816;53.628;9.950;2023-04-30T21:34:38;8.70;99.90
26041;DHT22;13816;53.628;9.950;2023-04-30T21:37:55;8.70;99.90
26041;DHT22;13816;53.628;9.950;2023-04-30T21:42:26;8.60;99.90
26041;DHT22;13816;53.628;9.950;2023-04-30T21:46:13;8.40;99.90
26041;DHT22;13816;53.628;9.950;2023-04-30T21:50:49;8.40;99.90
26041;DHT22;13816;53.628;9.950;2023-04-30T21:54:42;8.40;99.90
26041;DHT22;13816;53.628;9.950;2023-04-30T21:59:20;8.40;99.90
26041;DHT22;13816;53.628;9.950;2023-04-30T22:03:36;8.30;99.90
26041;DHT22;13816;53.628;9.950;2023-04-30T22:07:42;8.30;99.90
26041;DHT22;13816;53.628;9.950;2023-04-30T22:12:11;8.20;99.90
26041;DHT22;13816;53.628;9.950;2023-04-30T22:20:51;8.10;99.90
26041;DHT22;13816;53.628;9.950;2023-04-30T22:24:55;8.10;99.90
26041;DHT22;13816;53.628;9.950;2023-04-30T22:29:21;8.00;99.90
26041;DHT22;13816;53.628;9.950;2023-04-30T22:33:58;8.00;99.90
26041;DHT22;13816;53.628;9.950;2023-04-30T22:37:02;8.00;99.90
26041;DHT22;13816;53.628;9.950;2023-04-30T22:41:21;7.90;99.90
26041;DHT22;13816;53.628;9.950;2023-04-30T22:46:26;7.90;99.90
26041;DHT22;13816;53.628;9.950;2023-04-30T22:54:11;7.80;99.90
26041;DHT22;13816;53.628;9.950;2023-04-30T23:01:50;7.70;99.90
26041;DHT22;13816;53.628;9.950;2023-04-30T23:06:54;7.70;99.90
26041;DHT22;13816;53.628;9.950;2023-04-30T23:10:42;7.60;99.90
26041;DHT22;13816;53.628;9.950;2023-04-30T23:14:18;7.50;99.90
26041;DHT22;13816;53.628;9.950;2023-04-30T23:18:18;7.50;99.90
26041;DHT22;13816;53.628;9.950;2023-04-30T23:21:49;7.40;99.90
26041;DHT22;13816;53.628;9.950;2023-04-30T23:26:04;7.40;99.90
26041;DHT22;13816;53.628;9.950;2023-04-30T23:30:20;7.40;99.90
26041;DHT22;13816;53.628;9.950;2023-04-30T23:35:11;7.40;99.90
26041;DHT22;13816;53.628;9.950;2023-04-30T23:39:12;7.40;99.90
26041;DHT22;13816;53.628;9.950;2023-04-30T23:43:36;7.40;99.90
26041;DHT22;13816;53.628;9.950;2023-04-30T23:48:09;7.50;99.90
26041;DHT22;13816;53.628;9.950;2023-04-30T23:52:05;7.50;99.90
26041;DHT22;13816;53.628;9.950;2023-04-30T23:55:09;7.50;99.90
